createdAt,value
2022-08-26T00:02:56.072Z,98.53
2022-08-26T00:07:59.263Z,90.53
2022-08-26T00:13:05.660Z,87.94
2022-08-26T00:18:16.849Z,90.25
2022-08-26T00:23:28.962Z,95.37
2022-08-26T00:28:43.307Z,97.02
2022-08-26T00:33:47.874Z,88.63
2022-08-26T00:38:53.674Z,97.69
2022-08-26T00:44:00.633Z,100.00
2022-08-26T00:49:13.416Z,92.69
2022-08-26T00:54:27.047Z,91.19
2022-08-26T00:59:34.672Z,93.80
2022-08-26T01:04:39.830Z,100.00
2022-08-26T01:09:44.517Z,100.00
2022-08-26T01:14:50.524Z,96.11
2022-08-26T01:20:02.148Z,99.73
2022-08-26T01:25:22.853Z,100.00
2022-08-26T01:30:26.667Z,100.00
2022-08-26T01:35:32.575Z,100.00
2022-08-26T01:41:01.313Z,100.00
2022-08-26T01:46:20.152Z,100.00
2022-08-26T01:51:28.459Z,99.95
2022-08-26T01:56:55.830Z,98.32
2022-08-26T02:02:18.251Z,97.47
2022-08-26T02:07:28.451Z,93.56
2022-08-26T02:12:41.216Z,96.46
2022-08-26T02:17:47.696Z,94.67
2022-08-26T02:22:50.607Z,100.00
2022-08-26T02:28:13.108Z,98.31
2022-08-26T02:33:16.995Z,96.22
2022-08-26T02:38:23.234Z,100.00
2022-08-26T02:43:36.772Z,98.06
2022-08-26T02:48:49.760Z,97.53
2022-08-26T02:53:53.094Z,100.00
2022-08-26T02:59:24.392Z,100.00
2022-08-26T03:04:34.306Z,100.00
2022-08-26T03:09:37.076Z,100.00
2022-08-26T03:14:47.515Z,100.00
2022-08-26T03:19:57.251Z,100.00
2022-08-26T03:30:46.677Z,100.00
2022-08-26T03:36:07.421Z,100.00
2022-08-26T03:41:11.149Z,97.65
2022-08-26T03:46:16.482Z,95.50
2022-08-26T03:51:20.563Z,95.03
2022-08-26T03:56:23.793Z,100.00
2022-08-26T04:01:31.189Z,100.00
2022-08-26T04:06:39.066Z,100.00
2022-08-26T04:11:43.550Z,100.00
2022-08-26T04:16:49.039Z,95.60
2022-08-26T04:21:53.891Z,98.58
2022-08-26T04:26:58.053Z,95.57
2022-08-26T04:32:03.053Z,95.93
2022-08-26T04:37:06.410Z,95.68
2022-08-26T04:42:09.879Z,93.97
2022-08-26T04:47:13.892Z,95.41
2022-08-26T04:52:16.808Z,92.96
2022-08-26T04:57:19.567Z,90.79
2022-08-26T05:02:26.302Z,92.03
2022-08-26T05:07:29.685Z,92.14
2022-08-26T05:12:35.138Z,90.05
2022-08-26T05:17:39.157Z,90.83
2022-08-26T05:22:42.741Z,89.40
2022-08-26T05:27:45.600Z,89.84
2022-08-26T05:32:53.604Z,91.72
2022-08-26T05:37:57.916Z,89.61
2022-08-26T05:43:00.724Z,89.11
2022-08-26T05:48:08.885Z,89.21
2022-08-26T05:53:15.074Z,92.19
2022-08-26T05:58:24.170Z,94.52
2022-08-26T06:03:28.791Z,93.15
2022-08-26T06:08:33.929Z,91.33
2022-08-26T06:13:38.928Z,89.70
2022-08-26T06:18:45.069Z,88.72
2022-08-26T06:24:08.494Z,89.25
2022-08-26T06:29:16.408Z,90.87
2022-08-26T06:34:30.680Z,89.28
2022-08-26T06:39:33.482Z,89.40
2022-08-26T06:44:35.998Z,88.88
2022-08-26T06:49:40.154Z,88.39
2022-08-26T06:54:43.190Z,87.13
2022-08-26T06:59:46.888Z,86.35
2022-08-26T07:04:51.073Z,84.29
2022-08-26T07:09:54.427Z,86.44
2022-08-26T07:14:57.254Z,83.61
2022-08-26T07:20:03.206Z,86.63
2022-08-26T07:25:09.661Z,84.23
2022-08-26T07:30:14.914Z,82.96
2022-08-26T07:35:18.829Z,82.31
2022-08-26T07:40:22.166Z,84.75
2022-08-26T07:45:25.117Z,80.48
2022-08-26T07:50:47.085Z,79.66
2022-08-26T07:55:52.496Z,82.79
2022-08-26T08:00:55.098Z,80.54
2022-08-26T08:05:59.363Z,81.14
2022-08-26T08:11:02.746Z,80.78
2022-08-26T08:16:05.957Z,82.71
2022-08-26T08:21:22.074Z,81.71
2022-08-26T08:26:28.037Z,80.41
2022-08-26T08:31:55.978Z,78.79
2022-08-26T08:36:57.114Z,80.84
2022-08-26T08:42:28.039Z,80.77
2022-08-26T08:47:35.629Z,81.80
2022-08-26T08:52:42.197Z,80.32
2022-08-26T08:58:02.145Z,77.20
2022-08-26T09:03:18.712Z,74.55
2022-08-26T09:08:28.511Z,75.05
2022-08-26T09:13:31.788Z,75.14
2022-08-26T09:18:48.050Z,73.48
2022-08-26T09:23:54.045Z,74.05
2022-08-26T09:28:59.739Z,71.86
2022-08-26T09:34:17.810Z,73.07
2022-08-26T09:39:31.496Z,71.60
2022-08-26T09:44:35.777Z,70.29
2022-08-26T09:49:39.981Z,69.72
2022-08-26T09:54:58.265Z,69.18
2022-08-26T10:00:01.729Z,68.29
2022-08-26T10:05:10.191Z,67.06
2022-08-26T10:10:19.005Z,66.42
2022-08-26T10:15:23.141Z,68.32
2022-08-26T10:20:32.018Z,66.68
2022-08-26T10:25:43.251Z,67.57
2022-08-26T10:30:50.591Z,68.24
2022-08-26T10:35:56.836Z,65.64
2022-08-26T10:41:09.824Z,57.72
2022-08-26T10:46:18.497Z,55.09
2022-08-26T10:51:25.411Z,50.70
2022-08-26T10:56:44.423Z,49.16
2022-08-26T11:01:54.798Z,47.23
2022-08-26T11:07:37.292Z,50.35
2022-08-26T11:12:56.634Z,47.93
2022-08-26T11:18:02.031Z,44.64
2022-08-26T11:23:40.392Z,48.39
2022-08-26T11:28:48.302Z,41.96
2022-08-26T11:33:53.024Z,48.77
2022-08-26T11:38:57.209Z,50.47
2022-08-26T11:44:02.327Z,42.09
2022-08-26T11:49:07.851Z,43.64
2022-08-26T11:54:12.409Z,44.78
2022-08-26T11:59:23.817Z,45.38
2022-08-26T12:04:30.047Z,44.85
2022-08-26T12:09:35.658Z,44.83
2022-08-26T12:14:39.742Z,45.52
2022-08-26T12:19:42.741Z,47.36
2022-08-26T12:24:50.494Z,45.08
2022-08-26T12:30:12.240Z,47.21
2022-08-26T12:35:17.365Z,50.00
2022-08-26T12:40:28.895Z,50.42
2022-08-26T12:45:35.489Z,53.99
2022-08-26T12:50:40.169Z,57.29
2022-08-26T12:55:45.434Z,62.09
2022-08-26T13:00:51.193Z,62.06
2022-08-26T13:05:53.868Z,62.17
2022-08-26T13:11:05.620Z,59.99
2022-08-26T13:16:09.564Z,60.08
2022-08-26T13:21:17.028Z,60.97
2022-08-26T13:26:20.121Z,64.87
2022-08-26T13:31:26.972Z,67.39
2022-08-26T13:36:30.292Z,66.91
2022-08-26T13:41:33.112Z,67.01
2022-08-26T13:46:37.547Z,67.71
2022-08-26T13:51:40.365Z,64.25
2022-08-26T13:56:42.936Z,63.79
2022-08-26T14:01:46.889Z,62.90
2022-08-26T14:06:49.609Z,65.54
2022-08-26T14:11:54.359Z,63.73
2022-08-26T14:17:00.436Z,65.43
2022-08-26T14:22:05.087Z,66.62
2022-08-26T14:27:07.829Z,68.26
2022-08-26T14:32:21.020Z,70.13
2022-08-26T14:37:33.571Z,70.40
2022-08-26T14:42:37.202Z,70.42
2022-08-26T14:47:50.987Z,67.23
2022-08-26T14:53:11.290Z,71.25
2022-08-26T14:58:13.864Z,70.48
2022-08-26T15:08:23.034Z,74.83
2022-08-26T15:13:30.935Z,77.70
2022-08-26T15:18:35.173Z,80.37
2022-08-26T15:23:39.323Z,77.93
2022-08-26T15:28:42.515Z,80.12
2022-08-26T15:33:47.124Z,80.09
2022-08-26T15:38:49.659Z,80.18
2022-08-26T15:43:53.014Z,78.74
2022-08-26T15:48:56.839Z,77.14
2022-08-26T15:54:00.020Z,75.69
2022-08-26T15:59:03.661Z,74.97
2022-08-26T16:04:09.039Z,75.00
2022-08-26T16:09:15.249Z,74.54
2022-08-26T16:14:18.102Z,72.27
2022-08-26T16:19:22.565Z,72.57
2022-08-26T16:24:30.251Z,70.50
2022-08-26T16:29:33.081Z,69.61
2022-08-26T16:34:37.186Z,70.99
2022-08-26T16:39:49.714Z,70.24
2022-08-26T16:44:52.450Z,73.35
2022-08-26T16:49:56.559Z,75.13
2022-08-26T16:54:59.620Z,75.00
2022-08-26T17:00:05.863Z,74.08
2022-08-26T17:05:11.731Z,73.41
2022-08-26T17:10:14.595Z,71.68
2022-08-26T17:15:18.267Z,71.63
2022-08-26T17:20:23.309Z,71.41
2022-08-26T17:25:29.085Z,72.67
2022-08-26T17:30:31.885Z,72.99
2022-08-26T17:35:36.152Z,75.16
2022-08-26T17:40:38.706Z,75.00
2022-08-26T17:45:41.829Z,77.03
2022-08-26T17:50:49.692Z,79.41
2022-08-26T17:55:53.036Z,80.42
2022-08-26T18:00:56.856Z,79.86
2022-08-26T18:06:00.674Z,80.45
2022-08-26T18:11:03.586Z,77.54
2022-08-26T18:16:07.600Z,83.40
2022-08-26T18:21:15.642Z,82.22
2022-08-26T18:26:19.800Z,82.02
2022-08-26T18:31:22.424Z,81.11
2022-08-26T18:36:28.471Z,81.27
2022-08-26T18:41:34.286Z,87.48
2022-08-26T18:46:37.022Z,92.63
2022-08-26T18:51:41.896Z,93.59
2022-08-26T18:56:44.608Z,84.44
2022-08-26T19:01:50.519Z,93.35
2022-08-26T19:06:54.976Z,91.84
2022-08-26T19:11:57.544Z,85.25
2022-08-26T19:17:01.453Z,89.37
2022-08-26T19:22:05.592Z,93.78
2022-08-26T19:27:14.572Z,95.17
2022-08-26T19:32:17.994Z,85.76
2022-08-26T19:37:21.931Z,84.62
2022-08-26T19:42:24.395Z,89.38
2022-08-26T19:47:28.058Z,87.37
2022-08-26T19:52:31.967Z,86.39
2022-08-26T19:57:34.682Z,89.11
2022-08-26T20:02:37.254Z,93.21
2022-08-26T20:07:41.877Z,91.14
2022-08-26T20:12:44.359Z,84.89
2022-08-26T20:17:46.915Z,90.53
2022-08-26T20:22:53.274Z,87.70
2022-08-26T20:27:55.730Z,85.28
2022-08-26T20:32:58.229Z,86.60
2022-08-26T20:38:02.020Z,85.77
2022-08-26T20:43:05.997Z,83.44
2022-08-26T20:48:08.572Z,84.33
2022-08-26T20:53:13.088Z,83.93
2022-08-26T20:58:15.839Z,84.10
2022-08-26T21:03:18.318Z,92.01
2022-08-26T21:08:22.168Z,97.57
2022-08-26T21:13:24.532Z,96.88
2022-08-26T21:18:27.094Z,92.17
2022-08-26T21:23:30.925Z,89.71
2022-08-26T21:28:34.881Z,93.69
2022-08-26T21:33:39.321Z,90.27
2022-08-26T21:38:43.441Z,85.56
2022-08-26T21:43:46.486Z,84.94
2022-08-26T21:48:51.175Z,91.87
2022-08-26T21:53:55.487Z,90.71
2022-08-26T21:58:58.955Z,95.15
2022-08-26T22:04:03.762Z,87.11
2022-08-26T22:09:07.620Z,85.38
2022-08-26T22:14:10.490Z,84.60
2022-08-26T22:19:13.448Z,84.53
2022-08-26T22:24:23.136Z,86.64
2022-08-26T22:29:27.386Z,87.49
2022-08-26T22:34:29.895Z,88.83
2022-08-26T22:39:34.157Z,85.64
2022-08-26T22:44:37.581Z,84.80
2022-08-26T22:49:40.120Z,83.94
2022-08-26T22:54:43.972Z,85.03
2022-08-26T22:59:46.767Z,85.93
2022-08-26T23:04:49.984Z,86.25
2022-08-26T23:09:53.805Z,84.53
2022-08-26T23:14:56.204Z,87.48
2022-08-26T23:19:59.103Z,94.55
2022-08-26T23:30:14.663Z,100.00
2022-08-26T23:35:21.440Z,100.00
2022-08-26T23:40:28.346Z,100.00
2022-08-26T23:45:31.793Z,100.00
2022-08-26T23:50:52.480Z,98.22
2022-08-26T23:55:56.493Z,93.01
